Latest Weather Observations for Cape Ferguson

IDQ60801

Issued at 7:02 pm EST Saturday 6 February 2016 (issued every 30 minutes, with the page automatically refreshed every 10 minutes)

About weather observations | Map of weather stations | Latest weather observations for QLD | Other Formats
Station Details ID: 032182 Name: CAPE FERGUSON NTC AWS Lat: -19.28 Lon: 147.06 Height: 0.0 m
Data from the previous 72 hours. | See also: Recent months for locations in Queensland
Date/Time
EST
Temp
°C
App
Temp
°C
Dew
Point
Rel
Hum
%
Delta-T
°C
Wind Press
QNH
hPa
Press
MSL
hPa
Rain
since 9 am
mm
Dir
 
Spd
km/h
Gust
km/h
Spd
kts
Gust
kts
06/07:00pm 29.2 - - - - E 11 15 6 8 1003.4 1003.4 -
06/06:30pm 29.2 - - - - ENE 9 13 5 7 1003.2 1003.2 -
06/06:00pm 29.0 - - - - E 9 11 5 6 1002.5 1002.5 -
06/05:30pm 29.0 - - - - E 13 15 7 8 1001.9 1001.9 -
06/05:00pm 29.0 - - - - E 13 15 7 8 1001.5 1001.5 -
06/04:30pm 29.0 - - - - ENE 9 13 5 7 1001.5 1001.5 -
06/04:00pm 29.1 - - - - ENE 9 13 5 7 1002.0 1002.0 -
06/03:30pm 28.9 - - - - E 9 11 5 6 1001.9 1001.9 -
06/03:00pm 28.9 - - - - ENE 9 11 5 6 1002.0 1002.0 -
06/02:30pm 28.9 - - - - E 15 19 8 10 1002.3 1002.3 -
06/02:00pm 28.8 - - - - E 19 22 10 12 1002.4 1002.4 -
06/01:30pm 28.7 - - - - E 20 24 11 13 1002.3 1002.3 -
06/01:00pm 28.8 - - - - ENE 17 22 9 12 1002.7 1002.7 -
06/12:30pm 28.0 - - - - E 17 20 9 11 1003.3 1003.3 -
06/12:00pm 28.8 - - - - E 13 17 7 9 1003.7 1003.7 -
06/11:30am 28.8 - - - - ESE 9 13 5 7 1003.7 1003.7 -
06/11:00am 28.5 - - - - ESE 13 15 7 8 1003.8 1003.8 -
06/10:30am 28.6 - - - - ESE 9 15 5 8 1003.7 1003.7 -
06/10:00am 28.4 - - - - SE 11 13 6 7 1003.9 1003.9 -
06/09:30am 28.3 - - - - SE 7 9 4 5 1003.9 1003.9 -
06/09:00am 27.8 - - - - SSE 2 6 1 3 1003.8 1003.8 -
06/08:30am 27.7 - - - - SSE 4 6 2 3 1003.4 1003.4 -
06/08:00am 27.5 - - - - S 2 6 1 3 1003.2 1003.2 -
06/07:30am 26.8 - - - - WSW 6 7 3 4 1002.9 1002.9 -
06/07:00am 26.8 - - - - WSW 4 7 2 4 1002.6 1002.6 -
06/06:30am 26.7 - - - - WSW 6 9 3 5 1002.3 1002.3 -
06/06:00am 26.6 - - - - WSW 9 13 5 7 1002.1 1002.1 -
06/05:30am 26.6 - - - - SSW 11 13 6 7 1001.7 1001.7 -
06/05:00am 27.1 - - - - S 9 11 5 6 1001.6 1001.6 -
06/04:30am 27.4 - - - - SE 6 7 3 4 1001.3 1001.3 -
06/04:00am 26.7 - - - - WNW 4 6 2 3 1001.1 1001.1 -
06/03:30am 26.6 - - - - WNW 6 7 3 4 1000.9 1000.9 -
06/03:00am 26.6 - - - - NW 4 6 2 3 1001.2 1001.2 -
06/02:30am 26.6 - - - - NW 2 6 1 3 1001.3 1001.3 -
06/02:00am 27.3 - - - - N 6 9 3 5 1001.2 1001.2 -
06/01:30am 27.1 - - - - NNE 6 9 3 5 1001.1 1001.1 -
06/01:00am 27.0 - - - - NE 6 9 3 5 1001.4 1001.4 -
06/12:30am 26.6 - - - - NNW 4 7 2 4 1002.3 1002.3 -
06/12:00am 26.9 - - - - SW 6 7 3 4 1002.8 1002.8 -
 
Date/Time
EST
Temp
°C
App
Temp
°C
Dew
Point
Rel
Hum
%
Delta-T
°C
Wind Press
QNH
hPa
Press
MSL
hPa
Rain
since 9 am
mm
Dir
 
Spd
km/h
Gust
km/h
Spd
kts
Gust
kts
05/11:30pm 26.5 - - - - WNW 2 6 1 3 1003.4 1003.4 -
05/11:00pm 26.9 - - - - SSW 4 6 2 3 1003.5 1003.5 -
05/10:30pm 27.1 - - - - NW 4 11 2 6 1003.1 1003.1 -
05/10:00pm 26.2 - - - - NW 9 13 5 7 1003.4 1003.4 -
05/09:30pm 27.5 - - - - WNW 20 33 11 18 1003.3 1003.3 -
05/09:16pm 28.1 - - - - W 22 39 12 21 1003.6 1003.6 -
05/09:00pm 29.9 - - - - NW 4 9 2 5 1003.0 1003.0 -
05/08:30pm 29.9 - - - - NNW 7 13 4 7 1002.7 1002.7 -
05/08:00pm 29.8 - - - - NW 11 17 6 9 1002.4 1002.4 -
05/07:30pm 29.8 - - - - NW 9 17 5 9 1002.2 1002.2 -
05/07:00pm 29.8 - - - - W 4 11 2 6 1002.1 1002.1 -
05/06:30pm 29.9 - - - - WNW 6 11 3 6 1001.4 1001.4 -
05/06:00pm 30.0 - - - - SSE 4 9 2 5 1000.4 1000.4 -
05/05:30pm 30.3 - - - - E 4 11 2 6 1000.1 1000.1 -
05/05:00pm 30.4 - - - - ENE 9 17 5 9 1000.0 1000.0 -
05/04:30pm 29.8 - - - - ENE 11 24 6 13 999.7 999.7 -
05/04:00pm 29.9 - - - - NE 11 19 6 10 1000.1 1000.1 -
05/03:30pm 29.9 - - - - ENE 9 19 5 10 1000.3 1000.3 -
05/03:00pm 29.4 - - - - ENE 13 15 7 8 1000.8 1000.8 -
05/02:30pm 29.4 - - - - ENE 13 20 7 11 1000.8 1000.8 -
05/02:00pm 29.5 - - - - ENE 11 19 6 10 1001.3 1001.3 -
05/01:30pm 29.5 - - - - ENE 15 20 8 11 1001.5 1001.5 -
05/01:00pm 29.4 - - - - NE 9 17 5 9 1002.0 1002.0 -
05/12:30pm 29.1 - - - - ENE 9 20 5 11 1002.4 1002.4 -
05/12:00pm 28.6 - - - - ENE 11 15 6 8 1002.9 1002.9 -
05/11:30am 28.5 - - - - ENE 9 13 5 7 1003.2 1003.2 -
05/11:00am 28.3 - - - - ESE 6 7 3 4 1003.4 1003.4 -
05/10:30am 28.2 - - - - SE 6 7 3 4 1003.8 1003.8 -
05/10:00am 28.0 - - - - ESE 7 9 4 5 1003.9 1003.9 -
05/09:30am 27.9 - - - - SE 9 9 5 5 1004.1 1004.1 -
05/09:00am 28.4 - - - - ENE 4 7 2 4 1004.1 1004.1 -
05/08:30am 28.3 - - - - ENE 4 7 2 4 1004.1 1004.1 -
05/08:00am 27.8 - - - - WSW 2 4 1 2 1003.8 1003.8 -
05/07:30am 27.6 - - - - WNW 4 7 2 4 1003.4 1003.4 -
05/07:00am 27.4 - - - - NW 6 9 3 5 1002.8 1002.8 -
05/06:30am 27.6 - - - - NNW 7 11 4 6 1002.4 1002.4 -
05/06:00am 27.4 - - - - WNW 7 11 4 6 1002.1 1002.1 -
05/05:30am 27.5 - - - - NE 6 7 3 4 1001.6 1001.6 -
05/05:00am 27.2 - - - - NNE 6 7 3 4 1001.3 1001.3 -
05/04:30am 27.1 - - - - NW 2 4 1 2 1001.3 1001.3 -
05/04:00am 27.3 - - - - ESE 2 4 1 2 1001.5 1001.5 -
05/03:30am 27.1 - - - - NW 2 4 1 2 1001.4 1001.4 -
05/03:00am 27.0 - - - - NNW 6 9 3 5 1001.4 1001.4 -
05/02:30am 27.4 - - - - N 11 24 6 13 1001.3 1001.3 -
05/02:00am 26.7 - - - - NW 7 20 4 11 1002.1 1002.1 -
05/01:30am 26.8 - - - - NNW 6 7 3 4 1002.5 1002.5 -
05/01:00am 27.1 - - - - SW 4 6 2 3 1002.8 1002.8 -
05/12:30am 27.2 - - - - SSW 4 6 2 3 1003.3 1003.3 -
05/12:00am 27.4 - - - - CALM 0 2 0 1 1003.8 1003.8 -
 
Date/Time
EST
Temp
°C
App
Temp
°C
Dew
Point
Rel
Hum
%
Delta-T
°C
Wind Press
QNH
hPa
Press
MSL
hPa
Rain
since 9 am
mm
Dir
 
Spd
km/h
Gust
km/h
Spd
kts
Gust
kts
04/11:30pm 27.1 - - - - CALM 0 2 0 1 1004.3 1004.3 -
04/11:00pm 26.9 - - - - NW 6 9 3 5 1004.7 1004.7 -
04/10:30pm 27.2 - - - - WNW 4 6 2 3 1004.7 1004.7 -
04/10:00pm 28.1 - - - - NNE 2 6 1 3 1004.5 1004.5 -
04/09:30pm 28.4 - - - - NNW 2 6 1 3 1004.4 1004.4 -
04/09:00pm 28.7 - - - - WSW 6 7 3 4 1004.7 1004.7 -
04/08:30pm 29.7 - - - - NW 7 11 4 6 1004.3 1004.3 -
04/08:00pm 29.9 - - - - W 11 17 6 9 1003.9 1003.9 -
04/07:30pm 30.2 - - - - NW 13 20 7 11 1003.4 1003.4 -
04/07:00pm 29.9 - - - - NW 9 19 5 10 1002.8 1002.8 -
04/06:30pm 29.8 - - - - WSW 6 11 3 6 1002.5 1002.5 -
04/06:00pm 29.7 - - - - ENE 9 15 5 8 1002.1 1002.1 -
04/05:30pm 29.6 - - - - ENE 9 17 5 9 1001.7 1001.7 -
04/05:00pm 29.4 - - - - NNE 9 17 5 9 1001.4 1001.4 -
04/04:30pm 28.9 - - - - ENE 9 15 5 8 1001.5 1001.5 -
04/04:00pm 28.9 - - - - NE 9 17 5 9 1001.5 1001.5 -
04/03:30pm 28.6 - - - - ENE 11 17 6 9 1002.2 1002.2 -
04/03:00pm 28.7 - - - - NE 9 19 5 10 1002.5 1002.5 -
04/02:30pm 28.5 - - - - ENE 11 19 6 10 1002.9 1002.9 -
04/02:00pm 28.4 - - - - ENE 13 17 7 9 1003.4 1003.4 -
04/01:30pm 28.2 - - - - ENE 11 15 6 8 1003.7 1003.7 -
04/01:00pm 28.2 - - - - ENE 11 15 6 8 1003.9 1003.9 -
04/12:30pm 28.3 - - - - ENE 9 17 5 9 1004.3 1004.3 -
04/12:00pm 28.1 - - - - ENE 9 13 5 7 1004.8 1004.8 -
04/11:30am 27.7 - - - - E 7 11 4 6 1005.3 1005.3 -
04/11:00am 27.8 - - - - ESE 7 11 4 6 1005.5 1005.5 -
04/10:30am 27.7 - - - - ESE 7 9 4 5 1005.5 1005.5 -
04/10:00am 27.8 - - - - E 6 7 3 4 1005.6 1005.6 -
04/09:30am 27.7 - - - - ESE 6 7 3 4 1005.5 1005.5 -
04/09:00am 27.5 - - - - E 11 13 6 7 1005.5 1005.5 -
04/08:30am 27.4 - - - - E 9 11 5 6 1005.5 1005.5 -
04/08:00am 27.4 - - - - SE 2 4 1 2 1005.4 1005.4 -
04/07:30am 27.2 - - - - CALM 0 0 0 0 1005.2 1005.2 -
04/07:00am 27.1 - - - - CALM 0 2 0 1 1005.1 1005.1 -
04/06:30am 26.9 - - - - S 7 11 4 6 1004.9 1004.9 -
04/06:00am 27.0 - - - - SSE 19 24 10 13 1005.4 1005.4 -
04/05:30am 27.8 - - - - S 15 22 8 12 1005.3 1005.3 -
04/05:00am 28.0 - - - - SSE 22 28 12 15 1004.9 1004.9 -
04/04:30am 28.4 - - - - S 19 22 10 12 1004.8 1004.8 -
04/04:00am 28.9 - - - - SSW 9 11 5 6 1004.2 1004.2 -
04/03:30am 29.1 - - - - S 7 9 4 5 1004.1 1004.1 -
04/03:00am 29.4 - - - - WSW 6 7 3 4 1003.8 1003.8 -
04/02:30am 29.2 - - - - NNE 4 7 2 4 1003.7 1003.7 -
04/02:00am 29.3 - - - - E 2 2 1 1 1003.8 1003.8 -
04/01:30am 29.5 - - - - W 4 6 2 3 1004.3 1004.3 -
04/01:00am 29.5 - - - - NW 7 11 4 6 1004.9 1004.9 -
04/12:30am 29.3 - - - - NW 2 7 1 4 1005.1 1005.1 -
04/12:00am 29.3 - - - - NNE 4 7 2 4 1005.3 1005.3 -
 
Date/Time
EST
Temp
°C
App
Temp
°C
Dew
Point
Rel
Hum
%
Delta-T
°C
Wind Press
QNH
hPa
Press
MSL
hPa
Rain
since 9 am
mm
Dir
 
Spd
km/h
Gust
km/h
Spd
kts
Gust
kts
03/11:30pm 29.5 - - - - E 6 7 3 4 1005.8 1005.8 -
03/11:00pm 29.8 - - - - W 13 19 7 10 1006.0 1006.0 -
03/10:30pm 29.8 - - - - N 6 13 3 7 1005.6 1005.6 -
03/10:00pm 29.8 - - - - NNW 6 13 3 7 1005.6 1005.6 -
03/09:30pm 29.9 - - - - NW 7 15 4 8 1005.7 1005.7 -
03/09:00pm 29.8 - - - - NNW 9 19 5 10 1005.6 1005.6 -
03/08:30pm 29.8 - - - - NNW 7 15 4 8 1005.1 1005.1 -
03/08:00pm 29.9 - - - - NW 6 13 3 7 1004.7 1004.7 -
03/07:30pm 30.0 - - - - N 4 7 2 4 1004.7 1004.7 -

Other Formats:

Comma delimited format used in spreadsheet applications
http://www.bom.gov.au/fwo/IDQ60801/IDQ60801.94297.axf

JavaScript Object Notation format (JSON) in row-major order
http://www.bom.gov.au/fwo/IDQ60801/IDQ60801.94297.json